KSHN

Sanderson Field Airport

Shelton, Washington, USA
METAR KSHN 172353Z AUTO 13003KT 10SM CLR 22/04 A3006 RMK AO2 SLP182 T02220044 10222 20139 56019
Observed Flight Rules
Oct-17 @ 23:53 UTC (52 minutes ago) Visual Flight Rules
Wind Visibility Clouds
130° at 3 knots 10 miles
  • Clear skies
Temperatures Readings
Current 22°C / 72°F
Dewpoint 4°C / 39°F
Humidity 31%
Altimeter 30.06" Hg
Pressure 1018.2 hPa
Elevation 82
METAR KSHN 172353Z AUTO 13003KT 10SM CLR 22/04 A3006 RMK AO2 SLP182 T02220044 10222 20139 56019
Observed Flight Rules
Oct-17 @ 23:53 UTC
(52 minutes ago)
VFR
Wind Visibility
130° at 3 knots 10 miles
Clouds
  • Clear skies
Temperature Dewpoint
22°C / 72°F 4°C / 39°F
Humidity Altimeter Pressure
31% 30.06" Hg 1018.2 hPa